Weather observations for the past three days for
Giddings, Giddings-Lee County Airport
Metric (Imperial)
Date Time (cdt) Wind (kph) Vis. (km) Weather Sky Cond. Temperature (ºC) Relative Humidity Wind Chill (°C) Heat Index (°C) Pressure Precipitation (cm)
Air Dwpt 6 hour altimeter (cm) sea level (mb) 1 hr 3 hr 6 hr
Max. Min.
10 06:15 Calm 8.05 Fog/Mist CLR 19.7 19 96% 75.97 0.0
10 05:55 Calm 11.27 Fair CLR 19.8 19 95% 75.95 0.0
10 05:35 S 6 11.27 Fair CLR 19.9 19 95% 75.92 0.0
10 05:15 S 6 11.27 Fair CLR 20 19 94% 75.92 0.0
10 04:55 S 6 16.09 Fair CLR 20.2 19.2 94% 75.92 0.0
10 04:35 S 6 11.27 Fair CLR 20.2 19.1 93% 75.92 0.0
10 04:15 S 7 11.27 Fair CLR 20.2 19.1 93% 75.92 0.0
10 03:55 S 6 16.09 Fair CLR 20.6 19.2 92% 75.95 0.0
10 03:35 Calm 16.09 Fair CLR 20.8 19.5 92% 75.95 0.0
10 03:15 S 6 16.09 Fair CLR 21 19.5 91% 75.95 0.0
10 02:35 Calm 16.09 Fair CLR 21.5 19.6 89% 75.95 0.0
10 02:15 Calm 16.09 Fair CLR 21.5 19.5 88% 75.95 0.0
10 01:35 S 6 16.09 Fair CLR 21.5 19.3 87% 75.95 0.0
10 01:15 S 6 16.09 Fair CLR 21.6 19.1 86% 75.95 0.0
10 00:55 Calm 16.09 Fair CLR 22.2 19.1 27.7 20.6 83% 75.95 0.0
10 00:35 SE 9 16.09 Fair CLR 22.1 19 83% 75.95 0.0
10 00:15 SE 9 16.09 Fair CLR 21.7 18.3 81% 75.95 0.0
09 23:55 Calm 16.09 Fair CLR 22.2 18.1 78% 75.92 0.0
09 23:35 Calm 16.09 Fair CLR 22.2 18.1 78% 75.95 0.0
09 23:15 SE 6 16.09 Fair CLR 21.3 18.2 83% 75.92 0.0
09 22:55 SE 6 16.09 Fair CLR 20.8 17.8 83% 75.92 0.0
09 22:35 Calm 16.09 Fair CLR 21 17.6 81% 75.87 0.0
09 22:15 Calm 16.09 Fair CLR 21.1 17.8 82% 75.87 0.0
09 21:55 Calm 16.09 Fair CLR 21.5 18 81% 75.87 0.0
09 21:35 Calm 16.09 Fair CLR 22.6 17.3 72% 75.84 0.0
09 21:15 Calm 16.09 Fair CLR 23.4 17.2 68% 75.82 0.0
09 20:55 Calm 16.09 Fair CLR 23.2 17.6 71% 75.82 0.0
09 20:35 Calm 16.09 Fair CLR 23.8 17.6 68% 75.79 0.0
09 20:15 Calm 16.09 Fair CLR 24.9 17.3 63% 26 75.77 0.0
09 19:55 Calm 16.09 Fair CLR 25.7 17.1 59% 27 75.77 0.0
09 19:35 S 6 16.09 Fair CLR 26.7 16.9 55% 27 75.77 0.0
09 19:15 S 6 16.09 Fair CLR 27.4 18.5 58% 28 75.74 0.0
09 18:55 SE 6 16.09 Fair CLR 27.7 19 31.3 27.7 59% 29 75.74 0.0
09 18:35 SE 7 16.09 Fair CLR 28.2 18.6 56% 29 75.77 0.0
09 18:15 SE 7 16.09 Partly Cloudy SCT046 28.8 19.9 59% 31 75.74 0.0
09 17:55 SE 11 16.09 Fair CLR 28.7 22.5 69% 32 75.74 0.0
09 17:35 N 7 16.09 Fair CLR 29.1 21.2 62% 32 75.72 0.0
09 17:15 Calm 16.09 Fair CLR 29.3 21.2 62% 32 75.69 0.0
09 16:55 N 7 16.09 Partly Cloudy SCT050 29.8 21.4 61% 33 75.69 0.0
09 16:35 N 9 16.09 Partly Cloudy SCT050 30.7 21 56% 33 75.69 0.0
09 16:15 N 7 16.09 Partly Cloudy SCT045 SCT050 30.6 20.6 55% 33 75.72 0.0
09 15:55 Calm 16.09 Mostly Cloudy BKN045 30.9 21.1 56% 34 75.74 0.0
09 15:35 Calm 16.09 Mostly Cloudy BKN043 31.3 21.1 55% 34 75.74 0.0
09 15:15 Calm 16.09 Mostly Cloudy BKN043 30.1 21.1 59% 33 75.77 0.0
09 14:55 Calm 16.09 Fair CLR 30.8 21.7 58% 34 75.79 0.0
09 14:35 Calm 16.09 Partly Cloudy SCT055 SCT085 30.2 21.9 61% 33 75.79 0.0
09 14:15 Calm 16.09 Mostly Cloudy SCT034 SCT041 BKN060 29.2 21.7 64% 32 75.82 0.0
09 13:55 NW 7 16.09 Light Rain SCT032 BKN043 BKN048 28.8 21.9 66% 32 75.84 0.0
09 13:35 Calm 16.09 Mostly Cloudy SCT032 BKN065 BKN095 29.5 21.5 62% 32 75.87 0.0
09 13:15 Calm 16.09 Mostly Cloudy SCT029 BKN035 29.4 21.5 63% 32 75.87 0.0
09 12:55 SE 7 16.09 Mostly Cloudy SCT025 BKN033 BKN042 28.8 22.3 28.8 22.5 68% 32 75.9 0.0
09 12:35 Calm 16.09 Overcast BKN023 BKN042 OVC050 28 21.7 69% 30 75.92 0.0
09 12:15 Calm 16.09 Partly Cloudy SCT023 28.5 22.5 70% 32 75.95 0.0
09 11:55 S 11 16.09 Fair CLR 28 22.2 71% 31 75.92 0.0
09 11:35 S 13 16.09 Fair CLR 27.6 22.3 73% 30 75.9 0.0
09 11:15 SW 13 16.09 Partly Cloudy SCT010 26.5 22.5 79% 29 75.9 0.0
09 10:55 SW 9 16.09 Mostly Cloudy BKN010 25.8 22.5 82% 27 75.9 0.0
09 10:35 SW 6 16.09 Mostly Cloudy BKN010 BKN014 25.4 22.5 84% 27 75.92 0.0
09 10:15 S 11 16.09 Overcast BKN008 OVC014 24.7 22.6 88% 25 75.92 0.0
09 09:55 Calm 16.09 Overcast OVC008 23.8 22.5 92% 75.9 0.0
09 09:35 Calm 11.27 Overcast OVC006 23.4 22.6 95% 75.92 0.0
09 09:15 Calm 8.05 Fog/Mist BKN004 OVC013 23.2 22.7 97% 75.9 0.0
09 08:55 Calm 2.41 Fog/Mist OVC002 23 22.5 97% 75.9 0.0
09 08:35 Calm 1.61 Fog/Mist OVC002 22.8 22.5 98% 75.92 0.0
09 08:15 Calm 1.61 Fog/Mist OVC004 22.7 22.3 98% 75.92 0.0
09 07:55 Calm 1.21 Fog/Mist OVC004 22.6 22.2 98% 75.92 0.0
09 07:35 Calm 0.80 Fog OVC002 22.5 22.1 98% 75.9 0.0
09 07:15 Calm 0.40 Fog OVC002 22.5 22.1 98% 75.87 0.0
09 06:55 Calm 0.40 Fog OVC002 22.5 22 23 22.5 97% 75.92 0.0
09 06:35 Calm 0.80 Fog OVC002 22.5 22.1 98% 75.9 0.0
09 06:15 Calm 0.80 Fog OVC002 22.6 22.1 97% 75.9 0.0
09 05:55 Calm 1.21 Fog/Mist OVC002 22.6 22.1 97% 75.92 0.0
09 05:35 Calm 1.61 Fog/Mist OVC002 22.6 22.1 97% 75.95 0.0
09 05:15 Calm 1.61 Fog/Mist OVC002 22.6 22.1 97% 75.92 0.0
09 04:55 Calm 2.01 Fog/Mist OVC002 22.6 22 96% 75.87 0.0
09 04:35 Calm 2.82 Fog/Mist OVC004 22.7 22 96% 75.84 0.0
09 04:15 Calm 4.83 Fog/Mist OVC004 22.7 21.8 95% 75.82 0.0
09 03:55 Calm 4.83 Fog/Mist OVC004 22.8 21.9 95% 75.87 0.0
09 03:35 Calm 4.83 Fog/Mist OVC004 23 22 94% 75.87 0.0
09 03:15 Calm 4.83 Fog/Mist OVC004 22.8 21.8 94% 75.92 0.0
09 02:55 Calm 4.83 Fog/Mist OVC004 22.9 21.9 94% 75.9 0.0
09 02:35 Calm 4.83 Fog/Mist OVC006 22.9 21.8 94% 75.87 0.0
09 02:15 Calm 6.44 Fog/Mist OVC006 23 21.7 92% 75.87 0.0
09 01:55 S 6 6.44 Fog/Mist OVC006 23 21.7 92% 75.87 0.0
09 01:35 Calm 6.44 Fog/Mist OVC006 23 21.6 92% 75.87 0.0
09 01:15 Calm 4.83 Fog/Mist OVC006 23 21.7 92% 75.87 0.0
09 00:55 SE 6 4.83 Fog/Mist OVC006 23 21.7 25 23 92% 75.87 0.0
09 00:35 S 7 6.44 Fog/Mist OVC006 23 21.7 92% 75.84 0.0
09 00:15 S 6 6.44 Fog/Mist OVC006 23.1 21.8 92% 75.87 0.0
08 23:55 S 9 6.44 Fog/Mist OVC006 23 21.7 92% 75.87 0.0
08 23:35 S 7 8.05 Fog/Mist OVC006 23 21.6 92% 75.87 0.0
08 23:15 SE 15 11.27 Overcast OVC008 23.2 21.5 90% 75.87 0.0
08 22:55 SE 6 11.27 Overcast OVC010 23.4 21.5 89% 75.87 0.0
08 22:35 SE 6 11.27 Overcast OVC010 23.5 21.5 89% 75.84 0.0
08 22:15 Calm 11.27 Overcast OVC012 23.6 21.5 88% 75.84 0.0
08 21:55 SE 6 11.27 Overcast BKN014 OVC060 23.7 21.5 88% 75.82 0.0
08 21:35 SE 6 16.09 Overcast SCT018 OVC060 23.7 21.3 86% 75.82 0.0
08 21:15 Calm 11.27 Mostly Cloudy BKN018 BKN050 BKN060 23.7 21.2 86% 75.79 0.0
08 20:55 SE 6 16.09 Mostly Cloudy BKN020 BKN060 24.1 21.2 84% 24 75.77 0.0
08 20:35 SE 7 16.09 Overcast OVC020 24.2 21.5 85% 24 75.79 0.0
08 20:15 E 6 16.09 Overcast OVC018 24.2 21.3 84% 24 75.77 0.0
08 19:55 E 6 16.09 Overcast BKN018 OVC044 24.5 21.3 82% 25 75.77 0.0
08 19:35 E 6 16.09 Overcast BKN018 OVC043 24.7 21.3 81% 25 75.77 0.0
08 19:15 Calm 16.09 Overcast OVC043 25 21.2 80% 26 75.77 0.0
08 18:55 SE 6 16.09 Overcast BKN043 OVC060 25.1 21 25.9 22.5 78% 26 75.77 0.0
08 18:35 E 9 16.09 Overcast BKN043 OVC060 25.5 21 76% 27 75.77 0.0
08 17:55 E 11 16.09 Mostly Cloudy BKN060 25.6 21 76% 27 75.74 0.0
08 17:35 Calm 16.09 Overcast SCT039 BKN047 OVC060 25.3 20.7 76% 26 75.77 0.0
08 17:15 E 6 16.09 Overcast OVC039 25 20.6 77% 26 75.79 0.0
08 16:55 SE 9 16.09 Overcast SCT033 OVC044 24.9 20.5 77% 26 75.79 0.0
08 16:35 E 6 16.09 Overcast BKN033 OVC044 24.7 20.9 79% 25 75.79 0.0
08 16:15 Calm 16.09 Overcast OVC035 24.4 20.2 78% 25 75.82 0.0
08 15:55 E 6 16.09 Overcast BKN036 OVC043 24.5 20 76% 25 75.84 0.0
08 15:35 SE 6 16.09 Overcast SCT034 BKN040 OVC047 24.6 19.9 75% 25 75.87 0.0
08 15:15 Calm 16.09 Mostly Cloudy BKN040 BKN055 BKN070 25 20.1 74% 26 75.87 0.0
08 14:35 NE 9 16.09 Overcast BKN034 OVC041 23.9 19.5 76% 24 75.92 0.0
08 14:15 E 7 16.09 Overcast SCT016 BKN040 OVC049 23.3 19 77% 75.92 0.0
08 13:55 Calm 11.27 Light Drizzle SCT016 SCT027 OVC036 23 19 78% 75.95 0.0
08 13:35 E 6 16.09 Overcast OVC036 23 18.7 77% 75.97 0.0
08 13:15 E 7 16.09 Overcast SCT015 OVC038 22.8 18.6 77% 75.97 0.0
08 12:35 Calm 16.09 Overcast BKN015 OVC040 22.3 18.2 78% 76 0.0
08 12:15 E 6 16.09 Overcast BKN015 OVC050 22.1 17.9 77% 76.02 0.0
08 11:55 E 11 16.09 Mostly Cloudy BKN013 BKN050 21.9 17.6 77% 76.02 0.0
08 11:35 E 6 16.09 Overcast OVC013 21.1 17.3 79% 76.05 0.0
08 11:15 Calm 16.09 Overcast OVC011 20.9 17 78% 76.07 0.0
08 10:55 Calm 16.09 Overcast OVC009 20.5 17 80% 76.07 0.0
08 10:35 Calm 16.09 Overcast OVC009 20.1 16.6 80% 76.07 0.0
08 10:15 Calm 16.09 Overcast OVC009 19.8 16.3 80% 76.07 0.0
08 09:55 E 7 16.09 Mostly Cloudy BKN011 19.3 15.8 80% 76.07 0.0
08 09:35 E 7 16.09 Overcast OVC011 19 15.3 79% 76.1 0.0
08 09:15 E 9 16.09 Overcast OVC011 18.2 15 82% 76.12 0.0
08 08:35 NE 9 16.09 Overcast OVC011 17.6 14.5 82% 76.12 0.0
08 08:15 NE 7 16.09 Overcast OVC013 17.4 14.5 83% 76.12 0.0
08 07:55 NE 6 16.09 Overcast OVC013 17.1 14.5 85% 76.12 0.0
08 07:35 N 7 16.09 Overcast OVC013 17.2 14.4 84% 76.15 0.0
08 07:15 Calm 16.09 Overcast OVC015 17.2 14.2 83% 76.15 0.0
08 06:55 N 6 16.09 Overcast OVC015 17.2 14.2 17.2 16.5 83% 76.15 0.0
08 06:35 Calm 16.09 Overcast OVC015 17.2 14.1 82% 76.15 0.0
08 06:15 Calm 16.09 Overcast OVC015 17.2 14.1 82% 76.15 0.0
08 05:55 Calm 16.09 Overcast OVC015 17.1 14 82% 76.12 0.0
08 05:35 Calm 16.09 Overcast OVC015 17.1 14.1 83% 76.12 0.0
08 05:15 Calm 16.09 Overcast OVC017 17.1 14 82% 76.12 0.0
08 04:55 Calm 16.09 Overcast OVC019 17 14 83% 76.15 0.0
08 04:35 NE 6 16.09 Light Drizzle OVC019 17 14 83% 76.12 0.0
08 04:15 Calm 16.09 Overcast OVC021 17.1 13.8 81% 76.12 0.0
08 03:55 N 6 16.09 Overcast OVC021 17 13.6 81% 76.12 0.0
08 03:35 Calm 16.09 Overcast OVC023 17 13.6 81% 76.12 0.0
08 03:15 NE 6 16.09 Overcast OVC023 17 13.5 80% 76.12 0.0
08 02:55 NE 6 16.09 Overcast OVC023 17 13.5 80% 76.1 0.0
08 02:35 NE 6 16.09 Overcast OVC023 17 13.5 80% 76.15 0.0
08 02:15 Calm 16.09 Overcast OVC025 17 13.5 80% 76.17 0.0
08 01:55 Calm 16.09 Overcast OVC027 16.8 13.4 81% 76.2 0.0
08 01:35 N 7 16.09 Overcast BKN027 OVC036 16.7 13.3 80% 76.23 0.0
08 01:15 N 9 16.09 Mostly Cloudy BKN036 16.5 13.2 81% 76.2 0.0
08 00:55 Calm 16.09 Fair CLR 16.5 13.2 19.5 16.4 81% 76.15 0.0
08 00:35 NE 6 16.09 Fair CLR 16.5 13.3 82% 76.15 0.0
08 00:15 NE 6 16.09 Fair CLR 16.5 13.2 81% 76.17 0.0
07 23:55 N 6 16.09 Fair CLR 16.6 13.1 80% 76.17 0.0
07 23:35 Calm 16.09 Fair CLR 16.7 13.1 79% 76.25 0.0
07 23:15 N 7 16.09 Fair CLR 16.9 13 78% 76.25 0.0
07 22:55 Calm 16.09 Fair CLR 17 12.8 76% 76.23 0.0
07 22:35 N 6 16.09 Fair CLR 17.2 12.7 75% 76.2 0.0
07 22:15 NE 6 16.09 Fair CLR 17.5 12.6 73% 76.17 0.0
07 21:55 E 9 16.09 Fair CLR 17.2 12.5 74% 76.12 0.0
07 21:35 E 7 16.09 Fair CLR 17.4 12.6 74% 76.15 0.0
07 21:15 NE 7 16.09 Fair CLR 17.5 12.7 74% 76.15 0.0
07 20:55 NE 6 16.09 Fair CLR 17.5 12.5 73% 76.15 0.0
07 20:35 E 9 16.09 Fair CLR 17.5 12.6 73% 76.12 0.0
07 20:15 NE 7 16.09 Fair CLR 17.8 12.4 71% 76.17 0.0
07 19:55 N 9 16.09 Fair CLR 18.2 12.2 68% 76.2 0.0
07 19:35 N 7 16.09 Fair CLR 18.5 12.1 66% 76.2 0.0
07 19:15 N 11 16.09 Fair CLR 19 12.1 64% 76.2 0.0
07 18:55 NE 11 16.09 Fair CLR 19.5 12.4 21.3 18 64% 76.2 0.0
07 18:35 NE 11 16.09 Fair CLR 19.7 12.2 62% 76.23 0.0
07 18:15 NE 7 16.09 Fair CLR 20.3 12.2 60% 76.25 0.0
07 17:55 N 15 16.09 Fair CLR 20.2 11.8 59% 76.25 0.0
07 17:35 NE 9 16.09 Partly Cloudy SCT120 19.9 11.8 60% 76.25 0.0
07 17:15 N 17 16.09 Mostly Cloudy BKN120 19.6 12 62% 76.25 0.0
07 16:55 N 15 16.09 Mostly Cloudy BKN120 19 11.8 63% 76.25 0.0
07 16:35 NE 11 16.09 Fair CLR 18.8 12 65% 76.23 0.0
07 16:15 NE 11 16.09 Partly Cloudy SCT028 SCT046 SCT065 18.5 12.7 69% 76.23 0.0
07 15:55 NE 9 16.09 Light Rain SCT048 SCT060 BKN110 18.5 12.4 68% 76.23 0.0
07 15:35 NE 15 16.09 Partly Cloudy SCT030 SCT048 SCT070 18.7 12.3 67% 76.28 0.0
07 15:15 NE 11 16.09 Light Rain SCT045 SCT065 BKN090 19 12.6 67% 76.25 0.0
07 14:55 N 13 16.09 Partly Cloudy SCT120 19.9 12 61% 76.35 0.0
07 14:35 N 13 16.09 Fair CLR 20 12.1 61% 76.33 0.0
07 14:15 N 17 16.09 Fair CLR 21.2 12.8 59% 76.33 0.0
07 13:55 E 13 16.09 Fair CLR 20.5 13.2 63% 76.3 0.0
07 13:35 E 19 G 30 16.09 Fair CLR 20.4 13.2 63% 76.33 0.0
07 13:15 E 19 16.09 Partly Cloudy SCT039 19.5 12.9 66% 76.33 0.0
07 12:55 NE 7 16.09 Mostly Cloudy SCT033 BKN039 BKN046 18.4 12.4 18.4 14.6 68% 76.4 0.0
07 12:35 N 11 16.09 Overcast OVC033 17.2 11.8 71% 76.45 0.0
07 12:15 N 11 16.09 Overcast OVC031 16.9 11.7 72% 76.48 0.0
07 11:55 N 11 16.09 Overcast OVC029 16.5 11.7 73% 76.45 0.0
07 11:35 NE 9 16.09 Overcast OVC029 16.1 11.7 75% 76.45 0.0
07 11:15 N 19 16.09 Overcast OVC031 15.6 11.5 77% 76.45 0.0
07 10:55 N 17 16.09 Overcast SCT014 OVC031 15.6 11.8 78% 76.45 0.0
07 10:35 N 17 G 26 16.09 Overcast SCT014 BKN027 OVC034 15.3 11.6 79% 76.43 0.0
07 10:15 N 20 16.09 Overcast BKN014 OVC034 15 11.6 80% 76.38 0.0
07 09:55 N 7 16.09 Overcast OVC014 14.8 11.6 81% 76.45 0.0
07 09:35 NE 9 16.09 Overcast OVC014 14.7 11.5 81% 76.43 0.0
07 09:15 N 20 G 30 16.09 Overcast OVC014 15 11.7 81% 76.4 0.0
07 08:55 N 15 G 28 16.09 Overcast OVC014 14.8 11.6 81% 76.4 0.0
07 08:35 N 19 16.09 Overcast OVC012 14.8 11.8 82% 76.4 0.0
07 08:15 N 15 16.09 Overcast OVC012 15 12 82% 76.4 0.0
07 07:55 N 17 G 33 16.09 Overcast OVC012 14.8 12 83% 76.38 0.0
07 07:35 N 9 G 15 16.09 Overcast OVC012 14.7 12.3 86% 76.38 0.0
07 07:15 N 17 G 30 8.05 Fog/Mist OVC010 14.7 12.8 88% 76.35 0.0
07 06:55 N 22 G 31 11.27 Overcast OVC008 15.1 13.2 16.6 15.1 89% 76.33 0.0
07 06:35 N 13 G 30 16.09 Overcast OVC008 15.5 13.5 88% 76.33 0.0
Date Time (cdt) Wind (kph) Vis. (km) Weather Sky Cond. Air Dwpt Max. Min. Relative Humidity Wind Chill (°C) Heat Index (°C) altimeter (cm) sea level (mb) 1 hr 3 hr 6 hr
6 hour
Temperature (ºC) Pressure Precipitation (cm)